createdAt,value
2022-11-22T00:00:18.440Z,99654.66
2022-11-22T00:02:45.159Z,99637.69
2022-11-22T00:05:12.592Z,99640.84
2022-11-22T00:07:39.505Z,99610.72
2022-11-22T00:10:11.010Z,99630.03
2022-11-22T00:12:37.384Z,99601.81
2022-11-22T00:15:04.813Z,99576.16
2022-11-22T00:17:31.991Z,99619.16
2022-11-22T00:19:58.365Z,99610.50
2022-11-22T00:22:25.629Z,99610.75
2022-11-22T00:24:52.535Z,99606.28
2022-11-22T00:27:20.110Z,99603.47
2022-11-22T00:29:46.598Z,99601.25
2022-11-22T00:32:13.387Z,99600.50
2022-11-22T00:34:40.160Z,99604.31
2022-11-22T00:37:06.680Z,99593.19
2022-11-22T00:39:33.107Z,99597.19
2022-11-22T00:41:59.612Z,99590.47
2022-11-22T00:44:26.031Z,99588.78
2022-11-22T00:46:52.740Z,99592.28
2022-11-22T00:49:19.102Z,99576.81
2022-11-22T00:51:45.470Z,99573.56
2022-11-22T00:54:11.802Z,99576.53
2022-11-22T00:56:38.169Z,99573.78
2022-11-22T00:59:04.545Z,99546.78
2022-11-22T01:01:30.964Z,99572.28
2022-11-22T01:03:57.347Z,99549.66
2022-11-22T01:06:23.718Z,99567.34
2022-11-22T01:08:50.191Z,99538.44
2022-11-22T01:11:19.102Z,99565.75
2022-11-22T01:13:45.620Z,99557.59
2022-11-22T01:16:13.512Z,99551.53
2022-11-22T01:18:40.331Z,99557.19
2022-11-22T01:21:06.943Z,99546.88
2022-11-22T01:23:34.081Z,99554.22
2022-11-22T01:26:01.564Z,99555.19
2022-11-22T01:28:27.952Z,99549.22
2022-11-22T01:30:54.586Z,99535.97
2022-11-22T01:33:21.365Z,99555.72
2022-11-22T01:35:48.322Z,99551.13
2022-11-22T01:38:14.707Z,99519.66
2022-11-22T01:40:41.192Z,99556.41
2022-11-22T01:43:17.626Z,99558.22
2022-11-22T01:45:52.007Z,99532.16
2022-11-22T01:48:45.369Z,99533.34
2022-11-22T01:51:28.395Z,99534.72
2022-11-22T01:53:59.705Z,99538.66
2022-11-22T01:56:28.326Z,99522.03
2022-11-22T01:58:59.891Z,99547.84
2022-11-22T02:01:28.325Z,99536.41
2022-11-22T02:03:59.213Z,99545.84
2022-11-22T02:06:34.316Z,99526.63
2022-11-22T02:09:07.144Z,99532.78
2022-11-22T02:11:38.178Z,99503.19
2022-11-22T02:14:07.538Z,99497.88
2022-11-22T02:16:35.808Z,99528.81
2022-11-22T02:19:02.209Z,99526.81
2022-11-22T02:21:29.207Z,99505.56
2022-11-22T02:24:01.729Z,99521.84
2022-11-22T02:26:29.610Z,99523.50
2022-11-22T02:29:02.226Z,99498.53
2022-11-22T02:31:44.674Z,99502.91
2022-11-22T02:34:11.894Z,99514.25
2022-11-22T02:36:48.890Z,99476.81
2022-11-22T02:39:20.254Z,99467.69
2022-11-22T02:41:47.876Z,99458.00
2022-11-22T02:44:14.992Z,99507.88
2022-11-22T02:46:54.180Z,99498.94
2022-11-22T02:49:23.821Z,99496.00
2022-11-22T02:51:51.787Z,99503.75
2022-11-22T02:54:18.938Z,99496.09
2022-11-22T02:56:45.571Z,99495.38
2022-11-22T02:59:11.941Z,99514.34
2022-11-22T03:01:38.483Z,99506.69
2022-11-22T03:04:05.353Z,99486.91
2022-11-22T03:06:31.701Z,99489.94
2022-11-22T03:08:58.124Z,99499.72
2022-11-22T03:11:24.985Z,99517.16
2022-11-22T03:13:51.561Z,99498.88
2022-11-22T03:16:17.917Z,99502.03
2022-11-22T03:18:44.313Z,99502.84
2022-11-22T03:21:10.689Z,99514.03
2022-11-22T03:23:37.327Z,99523.19
2022-11-22T03:26:11.588Z,99521.16
2022-11-22T03:28:38.138Z,99519.81
2022-11-22T03:31:06.387Z,99483.63
2022-11-22T03:33:34.112Z,99497.06
2022-11-22T03:36:00.921Z,99524.84
2022-11-22T03:38:27.342Z,99525.69
2022-11-22T03:40:53.713Z,99514.03
2022-11-22T03:43:20.794Z,99514.25
2022-11-22T03:45:48.040Z,99505.41
2022-11-22T03:48:14.598Z,99497.25
2022-11-22T03:50:40.984Z,99517.56
2022-11-22T03:53:07.370Z,99537.00
2022-11-22T03:55:33.849Z,99528.88
2022-11-22T03:58:00.347Z,99537.38
2022-11-22T04:00:26.760Z,99515.28
2022-11-22T04:02:53.162Z,99517.72
2022-11-22T04:05:19.607Z,99542.28
2022-11-22T04:07:46.064Z,99537.81
2022-11-22T04:10:14.410Z,99534.19
2022-11-22T04:12:41.790Z,99533.91
2022-11-22T04:15:08.679Z,99522.44
2022-11-22T04:17:41.173Z,99533.56
2022-11-22T04:20:28.949Z,99540.03
2022-11-22T04:23:06.460Z,99530.22
2022-11-22T04:25:35.010Z,99521.09
2022-11-22T04:28:01.471Z,99535.22
2022-11-22T04:30:47.660Z,99546.88
2022-11-22T04:33:15.625Z,99539.06
2022-11-22T04:35:43.589Z,99546.53
2022-11-22T04:38:10.455Z,99521.91
2022-11-22T04:40:37.853Z,99541.25
2022-11-22T04:43:23.977Z,99543.44
2022-11-22T04:45:50.928Z,99538.94
2022-11-22T04:48:18.228Z,99542.97
2022-11-22T04:51:04.208Z,99546.44
2022-11-22T04:53:30.987Z,99551.41
2022-11-22T04:55:57.651Z,99552.78
2022-11-22T04:58:24.231Z,99541.97
2022-11-22T05:00:50.743Z,99549.66
2022-11-22T05:03:17.671Z,99542.16
2022-11-22T05:05:45.315Z,99545.16
2022-11-22T05:08:11.939Z,99502.13
2022-11-22T05:10:57.084Z,99508.75
2022-11-22T05:13:37.022Z,99555.78
2022-11-22T05:16:05.462Z,99554.28
2022-11-22T05:18:31.920Z,99551.47
2022-11-22T05:21:00.165Z,99554.63
2022-11-22T05:23:45.364Z,99553.63
2022-11-22T05:26:11.739Z,99547.00
2022-11-22T05:28:38.955Z,99514.91
2022-11-22T05:31:10.510Z,99557.31
2022-11-22T05:33:38.947Z,99529.56
2022-11-22T05:36:06.453Z,99551.66
2022-11-22T05:38:35.381Z,99514.91
2022-11-22T05:41:03.180Z,99565.13
2022-11-22T05:43:29.944Z,99569.59
2022-11-22T05:45:56.496Z,99566.47
2022-11-22T05:48:22.904Z,99566.78
2022-11-22T05:50:49.271Z,99561.97
2022-11-22T05:53:15.733Z,99564.31
2022-11-22T05:55:42.156Z,99561.66
2022-11-22T05:58:08.507Z,99567.63
2022-11-22T06:00:34.875Z,99552.03
2022-11-22T06:03:03.165Z,99570.00
2022-11-22T06:05:30.334Z,99570.81
2022-11-22T06:08:00.567Z,99574.97
2022-11-22T06:10:27.101Z,99564.34
2022-11-22T06:12:53.909Z,99550.53
2022-11-22T06:15:20.953Z,99572.66
2022-11-22T06:17:47.460Z,99577.66
2022-11-22T06:20:13.834Z,99580.97
2022-11-22T06:22:40.288Z,99571.69
2022-11-22T06:25:08.019Z,99575.00
2022-11-22T06:27:34.371Z,99572.34
2022-11-22T06:30:00.738Z,99573.84
2022-11-22T06:32:27.112Z,99573.84
2022-11-22T06:34:53.482Z,99577.19
2022-11-22T06:37:19.844Z,99583.84
2022-11-22T06:39:46.205Z,99575.53
2022-11-22T06:42:12.565Z,99580.19
2022-11-22T06:44:38.956Z,99582.50
2022-11-22T06:47:05.370Z,99570.06
2022-11-22T06:49:32.114Z,99572.38
2022-11-22T06:51:58.590Z,99573.06
2022-11-22T06:54:24.935Z,99576.22
2022-11-22T06:56:51.273Z,99540.78
2022-11-22T06:59:17.720Z,99586.38
2022-11-22T07:01:44.176Z,99576.09
2022-11-22T07:04:10.606Z,99581.72
2022-11-22T07:06:38.644Z,99567.41
2022-11-22T07:09:10.364Z,99588.06
2022-11-22T07:11:37.748Z,99594.38
2022-11-22T07:14:08.256Z,99598.38
2022-11-22T07:16:36.184Z,99598.03
2022-11-22T07:19:02.917Z,99598.53
2022-11-22T07:21:29.324Z,99605.34
2022-11-22T07:23:56.190Z,99611.81
2022-11-22T07:26:24.328Z,99615.31
2022-11-22T07:28:50.947Z,99591.22
2022-11-22T07:31:18.757Z,99616.00
2022-11-22T07:33:45.829Z,99607.34
2022-11-22T07:36:22.777Z,99616.31
2022-11-22T07:38:50.012Z,99586.41
2022-11-22T07:41:18.236Z,99597.88
2022-11-22T07:43:45.940Z,99635.13
2022-11-22T07:46:29.299Z,99617.81
2022-11-22T07:48:56.105Z,99600.88
2022-11-22T07:51:22.438Z,99618.66
2022-11-22T07:53:48.801Z,99619.66
2022-11-22T07:56:15.320Z,99636.28
2022-11-22T07:58:41.862Z,99623.16
2022-11-22T08:01:10.606Z,99633.13
2022-11-22T08:03:37.628Z,99628.78
2022-11-22T08:06:05.861Z,99628.94
2022-11-22T08:08:32.445Z,99641.25
2022-11-22T08:10:58.910Z,99638.28
2022-11-22T08:13:25.898Z,99637.59
2022-11-22T08:15:54.644Z,99637.09
2022-11-22T08:18:22.319Z,99632.25
2022-11-22T08:20:48.694Z,99637.91
2022-11-22T08:23:15.099Z,99643.72
2022-11-22T08:25:41.454Z,99626.59
2022-11-22T08:28:07.860Z,99634.75
2022-11-22T08:30:34.211Z,99638.03
2022-11-22T08:33:00.600Z,99638.81
2022-11-22T08:35:27.015Z,99639.13
2022-11-22T08:37:57.618Z,99644.09
2022-11-22T08:40:24.414Z,99625.41
2022-11-22T08:42:53.909Z,99629.41
2022-11-22T08:45:20.264Z,99629.38
2022-11-22T08:47:47.082Z,99643.00
2022-11-22T08:50:13.498Z,99640.31
2022-11-22T08:52:39.856Z,99628.94
2022-11-22T08:55:06.877Z,99631.59
2022-11-22T08:57:33.238Z,99633.59
2022-11-22T08:59:59.589Z,99629.34
2022-11-22T09:02:26.127Z,99633.00
2022-11-22T09:04:52.873Z,99625.84
2022-11-22T09:10:08.070Z,99618.88
2022-11-22T09:12:34.536Z,99623.06
2022-11-22T09:15:00.895Z,99637.63
2022-11-22T09:17:27.257Z,99626.00
2022-11-22T09:19:53.612Z,99642.44
2022-11-22T09:22:22.827Z,99651.28
2022-11-22T09:24:51.813Z,99652.03
2022-11-22T09:27:18.154Z,99651.56
2022-11-22T09:29:44.576Z,99651.78
2022-11-22T09:32:11.095Z,99655.91
2022-11-22T09:34:37.460Z,99663.00
2022-11-22T09:37:03.840Z,99667.53
2022-11-22T09:39:30.352Z,99652.75
2022-11-22T09:42:04.376Z,99653.22
2022-11-22T09:45:04.730Z,99662.91
2022-11-22T09:47:56.501Z,99652.94
2022-11-22T09:50:54.760Z,99647.50
2022-11-22T09:54:05.145Z,99651.38
2022-11-22T09:56:32.884Z,99655.38
2022-11-22T09:59:19.170Z,99655.44
2022-11-22T10:01:50.426Z,99663.34
2022-11-22T10:04:25.480Z,99672.59
2022-11-22T10:07:19.187Z,99680.69
2022-11-22T10:10:04.220Z,99684.44
2022-11-22T10:12:33.534Z,99682.44
2022-11-22T10:15:22.721Z,99687.84
2022-11-22T10:17:54.092Z,99673.47
2022-11-22T10:20:26.497Z,99690.91
2022-11-22T10:22:54.001Z,99687.56
2022-11-22T10:25:38.278Z,99661.72
2022-11-22T10:28:34.148Z,99692.06
2022-11-22T10:31:17.814Z,99695.66
2022-11-22T10:34:04.342Z,99704.25
2022-11-22T10:36:46.832Z,99674.31
2022-11-22T10:39:16.281Z,99707.25
2022-11-22T10:42:01.672Z,99685.41
2022-11-22T10:44:58.093Z,99693.91
2022-11-22T10:47:36.653Z,99688.91
2022-11-22T10:50:23.198Z,99689.91
2022-11-22T10:53:18.967Z,99690.75
2022-11-22T10:56:19.537Z,99682.28
2022-11-22T10:59:13.590Z,99679.25
2022-11-22T11:01:59.362Z,99673.25
2022-11-22T11:04:32.669Z,99665.59
2022-11-22T11:07:16.946Z,99669.00
2022-11-22T11:10:10.132Z,99660.69
2022-11-22T11:12:51.722Z,99657.34
2022-11-22T11:15:23.472Z,99661.44
2022-11-22T11:17:57.700Z,99657.94
2022-11-22T11:20:27.833Z,99659.22
2022-11-22T11:25:43.688Z,99658.03
2022-11-22T11:28:12.727Z,99667.16
2022-11-22T11:30:42.947Z,99669.56
2022-11-22T11:33:31.352Z,99665.50
2022-11-22T11:36:23.618Z,99657.28
2022-11-22T11:38:57.908Z,99661.88
2022-11-22T11:41:28.665Z,99655.38
2022-11-22T11:43:57.607Z,99638.19
2022-11-22T11:46:26.414Z,99633.19
2022-11-22T11:48:54.829Z,99598.56
2022-11-22T11:51:42.853Z,99647.59
2022-11-22T11:54:21.434Z,99635.38
2022-11-22T11:56:51.741Z,99655.78
2022-11-22T11:59:20.800Z,99648.25
2022-11-22T12:01:54.088Z,99644.66
2022-11-22T12:04:26.944Z,99646.56
2022-11-22T12:07:03.652Z,99641.66
2022-11-22T12:09:43.041Z,99649.41
2022-11-22T12:12:19.593Z,99639.72
2022-11-22T12:15:10.644Z,99643.06
2022-11-22T12:17:48.837Z,99643.47
2022-11-22T12:20:22.377Z,99640.97
2022-11-22T12:23:16.713Z,99645.88
2022-11-22T12:25:45.499Z,99627.16
2022-11-22T12:28:21.465Z,99649.06
2022-11-22T12:30:59.017Z,99646.88
2022-11-22T12:33:42.394Z,99617.69
2022-11-22T12:36:17.581Z,99641.00
2022-11-22T12:38:47.740Z,99643.56
2022-11-22T12:41:17.187Z,99662.56
2022-11-22T12:44:06.044Z,99653.63
2022-11-22T12:46:42.638Z,99646.78
2022-11-22T12:49:18.236Z,99648.91
2022-11-22T12:51:53.091Z,99652.88
2022-11-22T12:54:27.577Z,99653.22
2022-11-22T12:56:58.811Z,99656.19
2022-11-22T12:59:38.696Z,99650.00
2022-11-22T13:02:23.815Z,99647.78
2022-11-22T13:05:03.178Z,99662.38
2022-11-22T13:07:35.632Z,99658.97
2022-11-22T13:10:14.127Z,99662.53
2022-11-22T13:12:42.203Z,99671.41
2022-11-22T13:15:24.368Z,99672.22
2022-11-22T13:17:50.760Z,99677.94
2022-11-22T13:20:24.187Z,99674.97
2022-11-22T13:23:28.385Z,99683.00
2022-11-22T13:25:57.738Z,99676.19
2022-11-22T13:28:29.181Z,99632.88
2022-11-22T13:31:16.491Z,99676.81
2022-11-22T13:33:53.497Z,99660.22
2022-11-22T13:36:25.046Z,99668.34
2022-11-22T13:38:56.908Z,99664.28
2022-11-22T13:41:28.869Z,99676.19
2022-11-22T13:43:58.417Z,99685.22
2022-11-22T13:46:46.754Z,99681.06
2022-11-22T13:49:16.156Z,99677.09
2022-11-22T13:51:54.696Z,99685.13
2022-11-22T13:54:38.328Z,99683.28
2022-11-22T13:57:24.645Z,99651.19
2022-11-22T14:00:15.611Z,99677.00
2022-11-22T14:02:47.719Z,99668.44
2022-11-22T14:05:20.020Z,99667.22
2022-11-22T14:07:51.464Z,99634.03
2022-11-22T14:10:32.228Z,99663.09
2022-11-22T14:13:31.934Z,99656.41
2022-11-22T14:16:22.181Z,99660.75
2022-11-22T14:18:56.776Z,99660.31
2022-11-22T14:21:47.717Z,99666.66
2022-11-22T14:24:42.593Z,99665.16
2022-11-22T14:27:23.534Z,99664.53
2022-11-22T14:30:03.066Z,99660.13
2022-11-22T14:32:50.189Z,99658.53
2022-11-22T14:35:17.009Z,99662.03
2022-11-22T14:37:46.821Z,99637.63
2022-11-22T14:40:29.615Z,99657.69
2022-11-22T14:43:22.170Z,99658.25
2022-11-22T14:46:37.438Z,99666.25
2022-11-22T14:48:59.074Z,99663.94
2022-11-22T14:51:32.447Z,99628.97
2022-11-22T14:54:13.845Z,99664.03
2022-11-22T14:56:43.274Z,99665.50
2022-11-22T14:59:47.347Z,99665.19
2022-11-22T15:02:40.070Z,99642.72
2022-11-22T15:09:13.688Z,99656.47
2022-11-22T15:09:18.787Z,99620.81
2022-11-22T15:11:35.705Z,99649.47
2022-11-22T15:14:50.734Z,99650.03
2022-11-22T15:57:45.501Z,99659.84
2022-11-22T16:00:30.240Z,99652.06
2022-11-22T16:03:06.683Z,99664.22
2022-11-22T16:06:06.351Z,99654.91
2022-11-22T16:08:27.850Z,99652.88
2022-11-22T16:10:58.748Z,99659.22
2022-11-22T16:13:27.698Z,99661.72
2022-11-22T16:16:17.620Z,99665.88
2022-11-22T16:18:44.985Z,99672.75
2022-11-22T16:21:11.343Z,99681.78
2022-11-22T16:23:39.162Z,99665.97
2022-11-22T16:26:18.480Z,99685.63
2022-11-22T16:28:46.125Z,99637.75
2022-11-22T16:31:29.519Z,99680.13
2022-11-22T16:33:56.419Z,99689.25
2022-11-22T16:36:27.969Z,99679.75
2022-11-22T16:38:54.592Z,99649.72
2022-11-22T16:41:26.631Z,99695.97
2022-11-22T16:43:55.907Z,99684.25
2022-11-22T16:46:22.654Z,99670.97
2022-11-22T16:48:49.092Z,99688.75
2022-11-22T16:51:23.992Z,99673.66
2022-11-22T16:53:53.187Z,99678.00
2022-11-22T16:56:22.322Z,99684.97
2022-11-22T16:58:49.804Z,99685.91
2022-11-22T17:01:20.339Z,99662.72
2022-11-22T17:03:49.218Z,99682.91
2022-11-22T17:06:18.574Z,99687.13
2022-11-22T17:08:46.253Z,99687.56
2022-11-22T17:11:15.057Z,99674.06
2022-11-22T17:13:41.840Z,99677.19
2022-11-22T17:16:10.232Z,99667.41
2022-11-22T17:18:37.526Z,99671.56
2022-11-22T17:21:16.306Z,99687.56
2022-11-22T17:23:43.115Z,99680.75
2022-11-22T17:26:10.427Z,99685.03
2022-11-22T17:28:36.897Z,99699.09
2022-11-22T17:31:05.467Z,99688.94
2022-11-22T17:33:31.797Z,99704.59
2022-11-22T17:35:58.234Z,99712.44
2022-11-22T17:38:24.615Z,99698.97
2022-11-22T17:40:58.801Z,99701.75
2022-11-22T17:43:25.328Z,99711.44
2022-11-22T17:45:51.714Z,99684.38
2022-11-22T17:48:18.768Z,99674.53
2022-11-22T17:50:45.210Z,99697.66
2022-11-22T17:53:11.770Z,99661.41
2022-11-22T17:56:02.634Z,99712.56
2022-11-22T17:58:25.100Z,99695.63
2022-11-22T18:00:51.465Z,99715.22
2022-11-22T18:03:17.862Z,99710.84
2022-11-22T18:05:44.258Z,99707.03
2022-11-22T18:08:10.694Z,99696.84
2022-11-22T18:10:38.297Z,99719.84
2022-11-22T18:13:20.927Z,99712.50
2022-11-22T18:15:52.827Z,99675.31
2022-11-22T18:18:48.575Z,99714.34
2022-11-22T18:21:14.156Z,99715.75
2022-11-22T18:23:43.340Z,99719.44
2022-11-22T18:29:35.176Z,99716.81
2022-11-22T18:31:53.832Z,99715.34
2022-11-22T18:34:21.695Z,99712.50
2022-11-22T18:37:04.375Z,99706.00
2022-11-22T18:39:37.328Z,99715.69
2022-11-22T18:42:05.883Z,99703.28
2022-11-22T18:44:32.676Z,99715.09
2022-11-22T18:46:59.080Z,99723.28
2022-11-22T18:49:25.516Z,99696.84
2022-11-22T18:51:51.991Z,99720.06
2022-11-22T18:54:18.607Z,99693.22
2022-11-22T18:56:45.072Z,99723.22
2022-11-22T18:59:14.564Z,99722.94
2022-11-22T19:01:41.043Z,99728.06
2022-11-22T19:04:08.256Z,99727.06
2022-11-22T19:06:34.710Z,99732.91
2022-11-22T19:09:01.552Z,99730.69
2022-11-22T19:11:30.702Z,99736.56
2022-11-22T19:13:57.042Z,99725.59
2022-11-22T19:16:23.747Z,99730.56
2022-11-22T19:18:50.344Z,99734.56
2022-11-22T19:21:19.512Z,99723.91
2022-11-22T19:23:46.908Z,99726.56
2022-11-22T19:26:16.335Z,99732.91
2022-11-22T19:28:43.001Z,99720.97
2022-11-22T19:31:12.276Z,99715.47
2022-11-22T19:33:39.575Z,99718.66
2022-11-22T19:36:14.363Z,99724.00
2022-11-22T19:38:41.759Z,99713.22
2022-11-22T19:41:14.655Z,99721.53
2022-11-22T19:43:41.089Z,99711.88
2022-11-22T19:46:07.605Z,99728.53
2022-11-22T19:48:35.850Z,99727.97
2022-11-22T19:51:07.429Z,99721.31
2022-11-22T19:53:33.898Z,99715.09
2022-11-22T19:56:10.599Z,99719.09
2022-11-22T19:58:37.019Z,99716.75
2022-11-22T20:01:05.569Z,99716.75
2022-11-22T20:03:34.202Z,99717.44
2022-11-22T20:06:02.824Z,99695.16
2022-11-22T20:08:29.929Z,99710.72
2022-11-22T20:11:01.473Z,99713.38
2022-11-22T20:13:28.010Z,99721.94
2022-11-22T20:15:55.282Z,99720.94
2022-11-22T20:18:21.745Z,99722.56
2022-11-22T20:20:48.400Z,99734.78
2022-11-22T20:23:14.785Z,99741.22
2022-11-22T20:25:41.479Z,99741.91
2022-11-22T20:28:07.954Z,99745.00
2022-11-22T20:30:34.294Z,99739.81
2022-11-22T20:33:00.748Z,99744.03
2022-11-22T20:35:27.092Z,99746.03
2022-11-22T20:37:53.446Z,99744.03
2022-11-22T20:40:19.983Z,99751.50
2022-11-22T20:42:46.336Z,99754.34
2022-11-22T20:45:12.687Z,99740.75
2022-11-22T20:47:39.107Z,99755.41
2022-11-22T20:50:06.030Z,99762.75
2022-11-22T20:52:32.417Z,99758.09
2022-11-22T20:55:04.593Z,99760.44
2022-11-22T20:57:31.782Z,99748.13
2022-11-22T20:59:58.106Z,99760.75
2022-11-22T21:02:24.476Z,99771.44
2022-11-22T21:04:50.844Z,99757.63
2022-11-22T21:07:17.300Z,99765.78
2022-11-22T21:09:43.729Z,99758.75
2022-11-22T21:12:10.071Z,99761.44
2022-11-22T21:14:36.422Z,99762.28
2022-11-22T21:17:22.701Z,99759.22
2022-11-22T21:19:49.242Z,99744.28
2022-11-22T21:22:15.593Z,99759.53
2022-11-22T21:24:42.061Z,99747.72
2022-11-22T21:27:08.456Z,99757.38
2022-11-22T21:29:35.005Z,99721.94
2022-11-22T21:32:01.352Z,99759.66
2022-11-22T21:34:27.814Z,99751.19
2022-11-22T21:36:54.366Z,99760.50
2022-11-22T21:39:20.888Z,99772.84
2022-11-22T21:41:47.234Z,99775.69
2022-11-22T21:44:14.137Z,99778.19
2022-11-22T21:46:40.768Z,99734.75
2022-11-22T21:49:07.512Z,99753.72
2022-11-22T21:51:33.947Z,99768.34
2022-11-22T21:54:01.620Z,99778.69
2022-11-22T21:56:28.390Z,99745.44
2022-11-22T21:58:54.867Z,99775.81
2022-11-22T22:01:21.380Z,99773.97
2022-11-22T22:03:47.789Z,99771.16
2022-11-22T22:06:14.222Z,99768.47
2022-11-22T22:08:40.888Z,99777.97
2022-11-22T22:11:07.460Z,99781.66
2022-11-22T22:13:33.912Z,99778.78
2022-11-22T22:16:03.764Z,99779.63
2022-11-22T22:18:32.280Z,99782.47
2022-11-22T22:21:07.380Z,99789.47
2022-11-22T22:23:35.455Z,99787.00
2022-11-22T22:26:04.728Z,99773.38
2022-11-22T22:28:33.348Z,99790.97
2022-11-22T22:31:06.527Z,99782.94
2022-11-22T22:33:33.684Z,99785.47
2022-11-22T22:36:00.397Z,99789.13
2022-11-22T22:38:26.903Z,99786.28
2022-11-22T22:40:55.098Z,99792.78
2022-11-22T22:43:25.095Z,99800.13
2022-11-22T22:45:51.763Z,99790.97
2022-11-22T22:48:19.040Z,99800.97
2022-11-22T22:50:45.792Z,99801.34
2022-11-22T22:53:12.442Z,99805.31
2022-11-22T22:55:38.953Z,99804.66
2022-11-22T22:58:05.508Z,99798.38
2022-11-22T23:00:31.845Z,99802.16
2022-11-22T23:02:58.221Z,99804.31
2022-11-22T23:05:24.741Z,99797.97
2022-11-22T23:07:51.190Z,99804.13
2022-11-22T23:10:17.636Z,99786.00
2022-11-22T23:12:44.014Z,99801.31
2022-11-22T23:15:10.379Z,99804.59
2022-11-22T23:17:36.795Z,99805.28
2022-11-22T23:20:03.549Z,99794.28
2022-11-22T23:22:29.882Z,99805.56
2022-11-22T23:24:56.235Z,99804.56
2022-11-22T23:27:22.582Z,99805.81
2022-11-22T23:29:48.924Z,99808.34
2022-11-22T23:32:15.338Z,99795.81
2022-11-22T23:34:41.686Z,99800.94
2022-11-22T23:37:08.040Z,99799.94
2022-11-22T23:39:34.532Z,99802.75
2022-11-22T23:42:00.927Z,99802.41
2022-11-22T23:44:27.265Z,99800.53
2022-11-22T23:46:53.622Z,99804.59
2022-11-22T23:49:19.956Z,99805.06
2022-11-22T23:51:47.471Z,99812.41
2022-11-22T23:54:13.843Z,99809.91
2022-11-22T23:56:40.205Z,99809.91
2022-11-22T23:59:06.642Z,99812.06
